createdAt,value
2023-08-15T00:01:42.556Z,84.92
2023-08-15T00:04:11.224Z,84.65
2023-08-15T00:06:39.917Z,83.79
2023-08-15T00:09:08.939Z,83.36
2023-08-15T00:11:37.618Z,83.73
2023-08-15T00:14:06.586Z,83.49
2023-08-15T00:16:35.455Z,82.96
2023-08-15T00:19:05.923Z,83.34
2023-08-15T00:21:34.623Z,83.29
2023-08-15T00:24:03.282Z,83.47
2023-08-15T00:26:32.144Z,83.40
2023-08-15T00:29:01.565Z,83.23
2023-08-15T00:31:31.323Z,82.99
2023-08-15T00:34:00.002Z,83.28
2023-08-15T00:36:31.488Z,83.55
2023-08-15T00:39:04.028Z,83.49
2023-08-15T00:41:32.900Z,83.72
2023-08-15T00:44:01.562Z,83.61
2023-08-15T00:46:33.658Z,83.84
2023-08-15T00:49:02.929Z,84.20
2023-08-15T00:51:33.908Z,84.01
2023-08-15T00:54:04.098Z,83.81
2023-08-15T00:56:33.464Z,83.82
2023-08-15T00:59:03.345Z,83.58
2023-08-15T01:01:33.585Z,83.96
2023-08-15T01:04:04.234Z,83.77
2023-08-15T01:06:34.469Z,83.51
2023-08-15T01:09:03.568Z,83.51
2023-08-15T01:11:45.261Z,83.72
2023-08-15T01:14:21.645Z,83.83
2023-08-15T01:16:53.150Z,83.34
2023-08-15T01:19:36.332Z,83.33
2023-08-15T01:22:17.281Z,83.16
2023-08-15T01:24:50.029Z,83.26
2023-08-15T01:27:21.089Z,83.63
2023-08-15T01:29:50.693Z,83.41
2023-08-15T01:32:33.648Z,83.40
2023-08-15T01:35:14.174Z,83.70
2023-08-15T01:37:50.135Z,83.64
2023-08-15T01:40:24.500Z,83.95
2023-08-15T01:42:57.054Z,83.53
2023-08-15T01:45:29.999Z,83.34
2023-08-15T01:47:59.561Z,83.73
2023-08-15T01:50:28.701Z,83.70
2023-08-15T01:52:57.446Z,83.23
2023-08-15T01:55:27.889Z,83.11
2023-08-15T01:57:56.556Z,83.46
2023-08-15T02:00:25.279Z,83.54
2023-08-15T02:02:54.076Z,84.18
2023-08-15T02:05:23.059Z,83.52
2023-08-15T02:07:53.208Z,83.40
2023-08-15T02:10:21.936Z,83.85
2023-08-15T02:12:52.174Z,83.64
2023-08-15T02:15:21.177Z,83.41
2023-08-15T02:17:49.878Z,83.30
2023-08-15T02:20:18.977Z,83.46
2023-08-15T02:22:47.738Z,83.47
2023-08-15T02:25:16.565Z,83.47
2023-08-15T02:27:45.239Z,83.74
2023-08-15T02:30:15.869Z,84.07
2023-08-15T02:32:46.563Z,84.17
2023-08-15T02:35:15.431Z,84.08
2023-08-15T02:37:44.152Z,84.31
2023-08-15T02:40:14.305Z,84.18
2023-08-15T02:42:43.019Z,84.41
2023-08-15T02:45:12.335Z,84.41
2023-08-15T02:47:42.713Z,84.40
2023-08-15T02:50:11.817Z,84.48
2023-08-15T02:52:40.756Z,84.41
2023-08-15T02:55:10.011Z,84.23
2023-08-15T02:57:39.233Z,84.62
2023-08-15T03:00:10.408Z,84.67
2023-08-15T03:02:39.309Z,84.85
2023-08-15T03:05:10.348Z,84.95
2023-08-15T03:07:39.084Z,84.42
2023-08-15T03:10:09.019Z,84.16
2023-08-15T03:12:37.764Z,84.88
2023-08-15T03:15:07.572Z,84.51
2023-08-15T03:17:36.492Z,84.76
2023-08-15T03:20:10.542Z,84.83
2023-08-15T03:22:39.430Z,84.62
2023-08-15T03:25:10.214Z,85.05
2023-08-15T03:27:38.945Z,84.61
2023-08-15T03:30:09.620Z,84.95
2023-08-15T03:32:39.029Z,84.48
2023-08-15T03:35:10.275Z,84.58
2023-08-15T03:37:42.102Z,84.68
2023-08-15T03:40:12.283Z,84.40
2023-08-15T03:42:41.071Z,84.75
2023-08-15T03:45:10.670Z,84.47
2023-08-15T03:47:39.457Z,84.34
2023-08-15T03:50:10.461Z,84.37
2023-08-15T03:52:39.138Z,84.11
2023-08-15T03:55:08.919Z,84.63
2023-08-15T03:57:37.799Z,84.49
2023-08-15T04:00:07.886Z,84.42
2023-08-15T04:02:42.363Z,84.52
2023-08-15T04:05:13.563Z,84.52
2023-08-15T04:07:43.329Z,84.41
2023-08-15T04:10:13.316Z,84.70
2023-08-15T04:12:42.480Z,84.86
2023-08-15T04:15:12.280Z,85.20
2023-08-15T04:17:41.424Z,85.14
2023-08-15T04:20:13.850Z,85.08
2023-08-15T04:22:43.136Z,84.94
2023-08-15T04:25:11.909Z,85.04
2023-08-15T04:27:40.701Z,85.34
2023-08-15T04:30:10.612Z,85.51
2023-08-15T04:32:39.331Z,85.46
2023-08-15T04:35:09.553Z,85.35
2023-08-15T04:37:41.421Z,86.17
2023-08-15T04:40:15.193Z,85.87
2023-08-15T04:42:44.386Z,85.96
2023-08-15T04:45:13.220Z,86.02
2023-08-15T04:47:42.090Z,86.31
2023-08-15T04:50:11.977Z,86.43
2023-08-15T04:52:42.453Z,86.65
2023-08-15T04:55:14.371Z,86.37
2023-08-15T04:57:43.584Z,86.61
2023-08-15T05:00:16.637Z,86.92
2023-08-15T05:02:45.414Z,86.81
2023-08-15T05:05:15.036Z,87.47
2023-08-15T05:07:45.249Z,87.67
2023-08-15T05:10:14.031Z,87.49
2023-08-15T05:12:45.570Z,87.49
2023-08-15T05:15:14.851Z,87.84
2023-08-15T05:17:45.164Z,87.59
2023-08-15T05:20:15.943Z,87.94
2023-08-15T05:22:47.097Z,88.33
2023-08-15T05:25:15.925Z,88.32
2023-08-15T05:27:48.010Z,88.61
2023-08-15T05:30:17.169Z,88.35
2023-08-15T05:32:46.472Z,88.17
2023-08-15T05:35:15.262Z,88.95
2023-08-15T05:37:45.983Z,88.59
2023-08-15T05:40:16.058Z,88.81
2023-08-15T05:42:44.887Z,89.25
2023-08-15T05:45:13.594Z,89.59
2023-08-15T05:47:42.574Z,90.19
2023-08-15T05:50:12.149Z,90.27
2023-08-15T05:52:40.855Z,90.33
2023-08-15T05:55:11.331Z,90.22
2023-08-15T06:00:42.362Z,91.09
2023-08-15T06:03:11.609Z,90.50
2023-08-15T06:05:40.580Z,90.70
2023-08-15T06:08:09.720Z,90.08
2023-08-15T06:10:39.913Z,90.41
2023-08-15T06:13:08.884Z,90.31
2023-08-15T06:15:37.603Z,90.21
2023-08-15T06:18:06.739Z,90.01
2023-08-15T06:20:35.746Z,89.84
2023-08-15T06:23:04.604Z,89.64
2023-08-15T06:25:33.365Z,89.89
2023-08-15T06:28:03.661Z,89.43
2023-08-15T06:30:32.352Z,88.24
2023-08-15T06:33:01.625Z,87.54
2023-08-15T06:35:30.380Z,87.27
2023-08-15T06:37:59.064Z,87.21
2023-08-15T06:40:28.021Z,86.18
2023-08-15T06:42:56.773Z,85.96
2023-08-15T06:45:26.897Z,85.92
2023-08-15T06:47:56.034Z,85.19
2023-08-15T06:50:24.835Z,84.92
2023-08-15T06:52:53.498Z,84.61
2023-08-15T06:55:22.554Z,84.19
2023-08-15T06:57:51.195Z,84.34
2023-08-15T07:00:21.034Z,84.10
2023-08-15T07:02:51.630Z,83.80
2023-08-15T07:05:20.578Z,83.72
2023-08-15T07:07:49.319Z,83.38
2023-08-15T07:10:18.500Z,83.00
2023-08-15T07:12:47.932Z,82.81
2023-08-15T07:15:17.222Z,82.67
2023-08-15T07:17:45.971Z,83.18
2023-08-15T07:20:16.669Z,82.49
2023-08-15T07:22:46.242Z,81.27
2023-08-15T07:25:15.875Z,80.29
2023-08-15T07:27:45.133Z,80.34
2023-08-15T07:30:17.654Z,81.03
2023-08-15T07:32:46.940Z,80.76
2023-08-15T07:35:17.343Z,80.00
2023-08-15T07:37:49.305Z,79.54
2023-08-15T07:40:23.956Z,80.27
2023-08-15T07:42:55.960Z,80.86
2023-08-15T07:45:25.228Z,81.46
2023-08-15T07:47:54.788Z,81.68
2023-08-15T07:50:28.476Z,82.52
2023-08-15T07:52:59.581Z,82.68
2023-08-15T07:55:32.952Z,82.32
2023-08-15T07:58:02.175Z,81.92
2023-08-15T08:00:31.282Z,81.42
2023-08-15T08:03:01.529Z,81.14
2023-08-15T08:05:34.242Z,81.52
2023-08-15T08:08:04.433Z,81.97
2023-08-15T08:10:33.723Z,81.79
2023-08-15T08:13:02.781Z,82.07
2023-08-15T08:15:32.919Z,82.46
2023-08-15T08:18:01.840Z,82.49
2023-08-15T08:20:32.109Z,82.77
2023-08-15T08:23:01.014Z,81.84
2023-08-15T08:25:30.565Z,81.24
2023-08-15T08:27:59.337Z,81.24
2023-08-15T08:30:30.093Z,81.55
2023-08-15T08:33:00.304Z,82.23
2023-08-15T08:35:29.735Z,82.17
2023-08-15T08:38:00.455Z,82.22
2023-08-15T08:40:30.486Z,81.67
2023-08-15T08:43:00.316Z,82.29
2023-08-15T08:45:33.160Z,82.20
2023-08-15T08:48:04.369Z,82.28
2023-08-15T08:50:34.659Z,82.58
2023-08-15T08:53:05.290Z,82.61
2023-08-15T08:55:36.041Z,82.35
2023-08-15T08:58:08.283Z,82.61
2023-08-15T09:00:38.311Z,82.47
2023-08-15T09:03:07.458Z,82.75
2023-08-15T09:05:36.874Z,83.17
2023-08-15T09:08:08.550Z,82.51
2023-08-15T09:10:37.333Z,81.92
2023-08-15T09:13:07.159Z,80.66
2023-08-15T09:15:36.588Z,77.61
2023-08-15T09:18:08.162Z,76.29
2023-08-15T09:20:48.013Z,75.49
2023-08-15T09:23:19.337Z,72.30
2023-08-15T09:25:48.806Z,70.80
2023-08-15T09:28:17.747Z,69.83
2023-08-15T09:30:54.748Z,69.81
2023-08-15T09:33:23.601Z,66.45
2023-08-15T09:35:59.056Z,65.46
2023-08-15T09:38:30.946Z,65.65
2023-08-15T09:41:01.168Z,65.79
2023-08-15T09:43:31.452Z,61.44
2023-08-15T09:46:01.968Z,60.87
2023-08-15T09:48:31.500Z,61.25
2023-08-15T09:51:01.116Z,59.59
2023-08-15T09:53:31.988Z,59.76
2023-08-15T09:56:00.715Z,58.20
2023-08-15T09:58:29.484Z,58.64
2023-08-15T10:01:00.449Z,57.89
2023-08-15T10:03:37.283Z,53.09
2023-08-15T10:06:10.754Z,55.96
2023-08-15T10:08:44.604Z,54.15
2023-08-15T10:11:13.667Z,52.97
2023-08-15T10:13:43.070Z,51.09
2023-08-15T10:16:15.114Z,52.55
2023-08-15T10:18:55.583Z,52.86
2023-08-15T10:21:24.730Z,53.09
2023-08-15T10:24:04.753Z,52.94
2023-08-15T10:26:34.018Z,50.18
2023-08-15T10:29:05.626Z,52.50
2023-08-15T10:31:40.606Z,51.98
2023-08-15T10:34:12.965Z,48.40
2023-08-15T10:36:44.265Z,51.52
2023-08-15T10:39:17.611Z,52.32
2023-08-15T10:41:46.403Z,50.01
2023-08-15T10:44:18.489Z,49.41
2023-08-15T10:46:47.706Z,49.55
2023-08-15T10:49:21.052Z,49.07
2023-08-15T10:51:49.876Z,50.17
2023-08-15T10:54:20.214Z,49.77
2023-08-15T10:56:50.238Z,46.50
2023-08-15T10:59:20.500Z,46.95
2023-08-15T11:01:49.781Z,45.56
2023-08-15T11:04:20.895Z,46.04
2023-08-15T11:06:53.656Z,46.87
2023-08-15T11:09:31.329Z,45.65
2023-08-15T11:12:08.789Z,48.21
2023-08-15T11:14:37.917Z,44.50
2023-08-15T11:17:08.227Z,48.60
2023-08-15T11:19:37.108Z,44.44
2023-08-15T11:22:06.444Z,45.86
2023-08-15T11:24:36.725Z,46.41
2023-08-15T11:27:07.910Z,45.20
2023-08-15T11:29:37.012Z,43.00
2023-08-15T11:32:07.085Z,47.08
2023-08-15T11:34:36.563Z,43.44
2023-08-15T11:37:06.979Z,45.89
2023-08-15T11:39:37.893Z,45.28
2023-08-15T11:42:07.282Z,46.41
2023-08-15T11:44:36.258Z,43.52
2023-08-15T11:47:09.102Z,44.03
2023-08-15T11:49:46.171Z,44.83
2023-08-15T11:52:15.268Z,42.82
2023-08-15T11:54:47.542Z,43.67
2023-08-15T11:57:16.511Z,44.30
2023-08-15T11:59:45.442Z,43.05
2023-08-15T12:02:14.411Z,46.04
2023-08-15T12:04:43.077Z,40.95
2023-08-15T12:07:12.137Z,43.34
2023-08-15T12:09:41.593Z,44.55
2023-08-15T12:12:21.091Z,43.31
2023-08-15T12:14:51.491Z,43.70
2023-08-15T12:17:21.612Z,44.02
2023-08-15T12:19:50.374Z,41.70
2023-08-15T12:22:19.573Z,41.33
2023-08-15T12:24:48.597Z,40.97
2023-08-15T12:27:19.737Z,42.01
2023-08-15T12:30:13.654Z,43.13
2023-08-15T12:32:37.992Z,45.77
2023-08-15T12:35:08.059Z,44.74
2023-08-15T12:37:37.370Z,42.42
2023-08-15T12:40:14.811Z,44.46
2023-08-15T12:42:52.630Z,43.85
2023-08-15T12:45:21.758Z,44.70
2023-08-15T12:47:51.079Z,46.09
2023-08-15T12:50:20.265Z,44.10
2023-08-15T12:52:49.096Z,41.40
2023-08-15T12:55:18.364Z,42.35
2023-08-15T12:57:47.210Z,42.40
2023-08-15T13:00:19.640Z,41.80
2023-08-15T13:02:48.699Z,42.54
2023-08-15T13:05:17.852Z,39.63
2023-08-15T13:07:46.840Z,39.99
2023-08-15T13:10:15.828Z,41.19
2023-08-15T13:12:44.874Z,43.53
2023-08-15T13:15:13.761Z,43.26
2023-08-15T13:17:44.997Z,40.88
2023-08-15T13:20:15.871Z,42.21
2023-08-15T13:22:44.722Z,44.85
2023-08-15T13:25:13.529Z,42.56
2023-08-15T13:27:42.222Z,43.55
2023-08-15T13:30:11.536Z,43.99
2023-08-15T13:44:13.893Z,49.62
2023-08-15T13:46:42.696Z,50.21
2023-08-15T13:49:12.710Z,49.68
2023-08-15T13:51:43.598Z,45.29
2023-08-15T13:54:13.227Z,44.12
2023-08-15T13:56:42.483Z,43.19
2023-08-15T13:59:12.656Z,42.55
2023-08-15T14:01:41.468Z,42.83
2023-08-15T14:04:13.360Z,40.86
2023-08-15T14:06:42.328Z,39.50
2023-08-15T14:09:11.064Z,40.24
2023-08-15T14:11:39.962Z,39.50
2023-08-15T14:14:08.693Z,40.51
2023-08-15T14:16:38.814Z,38.64
2023-08-15T14:19:07.874Z,39.67
2023-08-15T14:21:36.591Z,40.04
2023-08-15T14:24:05.717Z,41.31
2023-08-15T14:26:34.507Z,42.39
2023-08-15T14:29:03.224Z,44.43
2023-08-15T14:31:32.645Z,45.20
2023-08-15T14:34:02.766Z,46.79
2023-08-15T14:36:31.665Z,47.45
2023-08-15T14:39:00.404Z,49.05
2023-08-15T14:41:29.121Z,50.96
2023-08-15T14:43:57.822Z,50.84
2023-08-15T14:46:26.665Z,51.74
2023-08-15T14:48:55.444Z,52.98
2023-08-15T14:51:25.553Z,54.16
2023-08-15T14:53:54.244Z,54.80
2023-08-15T14:56:26.587Z,55.12
2023-08-15T14:58:55.560Z,55.91
2023-08-15T15:01:24.387Z,56.42
2023-08-15T15:03:53.312Z,57.37
2023-08-15T15:06:22.037Z,57.77
2023-08-15T15:08:52.207Z,56.85
2023-08-15T15:11:20.953Z,57.60
2023-08-15T15:13:49.923Z,58.38
2023-08-15T15:16:18.809Z,58.39
2023-08-15T15:18:47.463Z,57.86
2023-08-15T15:21:16.169Z,58.20
2023-08-15T15:23:44.958Z,59.33
2023-08-15T15:26:15.080Z,60.12
2023-08-15T15:28:46.281Z,60.97
2023-08-15T15:31:22.704Z,61.43
2023-08-15T15:34:04.458Z,62.05
2023-08-15T15:36:48.762Z,63.76
2023-08-15T15:39:17.709Z,64.45
2023-08-15T15:41:48.427Z,64.54
2023-08-15T15:44:17.420Z,65.21
2023-08-15T15:46:54.524Z,65.26
2023-08-15T15:49:23.698Z,65.67
2023-08-15T15:51:52.662Z,65.83
2023-08-15T15:54:21.629Z,66.06
2023-08-15T15:56:51.961Z,66.74
2023-08-15T15:59:21.772Z,67.66
2023-08-15T16:01:53.483Z,67.94
2023-08-15T16:04:22.717Z,68.43
2023-08-15T16:06:52.227Z,67.85
2023-08-15T16:09:23.552Z,68.88
2023-08-15T16:11:54.969Z,68.63
2023-08-15T16:14:25.088Z,69.63
2023-08-15T16:16:54.792Z,70.03
2023-08-15T16:19:24.474Z,69.61
2023-08-15T16:21:54.307Z,70.05
2023-08-15T16:24:24.415Z,69.91
2023-08-15T16:26:55.198Z,70.28
2023-08-15T16:29:24.323Z,70.37
2023-08-15T16:31:53.289Z,70.37
2023-08-15T16:34:22.819Z,70.18
2023-08-15T16:36:51.771Z,69.83
2023-08-15T16:39:20.561Z,70.09
2023-08-15T16:41:49.340Z,70.59
2023-08-15T16:44:20.721Z,71.28
2023-08-15T16:46:49.708Z,70.91
2023-08-15T16:49:18.791Z,71.47
2023-08-15T16:51:51.218Z,72.13
2023-08-15T16:54:20.333Z,73.49
2023-08-15T16:56:52.043Z,74.46
2023-08-15T16:59:22.293Z,75.93
2023-08-15T17:01:51.119Z,75.18
2023-08-15T17:04:19.960Z,74.33
2023-08-15T17:06:48.854Z,74.29
2023-08-15T17:09:18.385Z,75.38
2023-08-15T17:11:47.276Z,75.76
2023-08-15T17:14:17.756Z,75.66
2023-08-15T17:16:48.321Z,76.48
2023-08-15T17:19:19.377Z,76.44
2023-08-15T17:21:48.733Z,76.59
2023-08-15T17:24:18.762Z,76.92
2023-08-15T17:26:47.807Z,77.53
2023-08-15T17:29:16.609Z,78.34
2023-08-15T17:31:46.354Z,78.44
2023-08-15T17:34:16.737Z,81.89
2023-08-15T17:36:45.991Z,82.28
2023-08-15T17:39:15.109Z,83.44
2023-08-15T17:41:46.034Z,84.01
2023-08-15T17:44:15.039Z,83.24
2023-08-15T17:46:43.909Z,83.14
2023-08-15T17:49:12.756Z,83.61
2023-08-15T17:51:42.904Z,83.71
2023-08-15T17:54:11.974Z,83.34
2023-08-15T17:56:40.710Z,83.84
2023-08-15T17:59:09.594Z,83.37
2023-08-15T18:01:38.741Z,83.65
2023-08-15T18:04:08.171Z,84.34
2023-08-15T18:09:29.962Z,83.92
2023-08-15T18:12:01.295Z,83.67
2023-08-15T18:14:30.224Z,84.85
2023-08-15T18:16:59.479Z,84.88
2023-08-15T18:19:28.368Z,84.53
2023-08-15T18:22:00.293Z,84.00
2023-08-15T18:24:31.256Z,86.06
2023-08-15T18:27:00.125Z,85.28
2023-08-15T18:29:31.353Z,86.33
2023-08-15T18:32:00.511Z,86.15
2023-08-15T18:34:30.370Z,84.74
2023-08-15T18:36:59.444Z,83.80
2023-08-15T18:39:29.945Z,83.51
2023-08-15T18:41:58.708Z,83.39
2023-08-15T18:44:28.010Z,84.51
2023-08-15T18:46:57.495Z,83.82
2023-08-15T18:49:28.375Z,83.86
2023-08-15T18:51:57.136Z,83.34
2023-08-15T18:54:28.104Z,83.17
2023-08-15T18:56:58.737Z,83.51
2023-08-15T18:59:27.500Z,83.46
2023-08-15T19:01:56.463Z,83.26
2023-08-15T19:04:26.328Z,82.58
2023-08-15T19:06:55.416Z,82.73
2023-08-15T19:09:24.339Z,82.92
2023-08-15T19:11:53.035Z,82.82
2023-08-15T19:14:23.295Z,82.33
2023-08-15T19:16:52.050Z,82.75
2023-08-15T19:19:20.848Z,82.57
2023-08-15T19:21:49.795Z,82.46
2023-08-15T19:24:19.251Z,82.29
2023-08-15T19:26:48.295Z,82.08
2023-08-15T19:29:17.051Z,83.66
2023-08-15T19:31:48.296Z,83.78
2023-08-15T19:34:20.203Z,83.80
2023-08-15T19:36:49.363Z,84.05
2023-08-15T19:39:18.169Z,84.44
2023-08-15T19:41:50.538Z,84.05
2023-08-15T19:44:19.427Z,84.67
2023-08-15T19:46:49.661Z,84.74
2023-08-15T19:49:18.335Z,85.94
2023-08-15T19:51:50.396Z,86.32
2023-08-15T19:54:19.711Z,85.84
2023-08-15T19:56:48.531Z,85.74
2023-08-15T19:59:18.065Z,86.11
2023-08-15T20:01:49.358Z,86.48
2023-08-15T20:04:21.759Z,86.82
2023-08-15T20:06:51.441Z,86.34
2023-08-15T20:09:22.433Z,87.19
2023-08-15T20:11:51.652Z,86.87
2023-08-15T20:14:22.305Z,86.62
2023-08-15T20:16:52.594Z,86.55
2023-08-15T20:19:21.631Z,87.07
2023-08-15T20:21:51.684Z,88.13
2023-08-15T20:24:20.796Z,88.12
2023-08-15T20:26:49.603Z,87.69
2023-08-15T20:29:18.562Z,87.44
2023-08-15T20:31:47.348Z,87.30
2023-08-15T20:34:17.449Z,87.25
2023-08-15T20:36:46.252Z,87.37
2023-08-15T20:39:14.907Z,87.31
2023-08-15T20:41:43.713Z,87.55
2023-08-15T20:44:12.368Z,87.70
2023-08-15T20:46:42.151Z,87.25
2023-08-15T20:49:11.452Z,87.53
2023-08-15T20:51:41.719Z,88.03
2023-08-15T20:54:10.403Z,87.63
2023-08-15T20:56:41.169Z,88.30
2023-08-15T20:59:09.982Z,88.25
2023-08-15T21:01:38.874Z,88.21
2023-08-15T21:04:08.261Z,88.26
2023-08-15T21:06:37.297Z,88.33
2023-08-15T21:09:08.036Z,88.33
2023-08-15T21:11:36.864Z,88.89
2023-08-15T21:14:06.059Z,89.38
2023-08-15T21:16:35.077Z,89.84
2023-08-15T21:19:03.804Z,89.66
2023-08-15T21:21:32.433Z,88.92
2023-08-15T21:24:01.136Z,88.85
2023-08-15T21:26:31.454Z,88.85
2023-08-15T21:29:00.173Z,88.86
2023-08-15T21:31:30.096Z,88.72
2023-08-15T21:33:59.008Z,88.90
2023-08-15T21:36:27.629Z,89.62
2023-08-15T21:38:56.306Z,89.18
2023-08-15T21:41:25.534Z,89.43
2023-08-15T21:43:55.866Z,89.69
2023-08-15T21:46:24.761Z,89.55
2023-08-15T21:48:53.577Z,89.55
2023-08-15T21:51:22.271Z,90.93
2023-08-15T21:53:51.055Z,91.17
2023-08-15T21:56:19.853Z,90.78
2023-08-15T21:58:48.459Z,91.05
2023-08-15T22:01:18.528Z,90.77
2023-08-15T22:03:47.420Z,91.27
2023-08-15T22:06:16.285Z,91.42
2023-08-15T22:08:44.954Z,90.70
2023-08-15T22:11:14.372Z,90.62
2023-08-15T22:13:43.246Z,90.51
2023-08-15T22:16:12.015Z,90.23
2023-08-15T22:18:42.064Z,89.92
2023-08-15T22:21:11.183Z,90.36
2023-08-15T22:23:39.949Z,90.09
2023-08-15T22:26:08.587Z,89.70
2023-08-15T22:28:37.248Z,89.64
2023-08-15T22:31:05.945Z,89.48
2023-08-15T22:33:34.881Z,89.19
2023-08-15T22:36:05.518Z,89.20
2023-08-15T22:38:34.445Z,89.14
2023-08-15T22:41:03.217Z,89.06
2023-08-15T22:43:31.929Z,89.42
2023-08-15T22:46:00.703Z,89.56
2023-08-15T22:48:29.503Z,89.42
2023-08-15T22:50:58.368Z,88.69
2023-08-15T22:53:28.444Z,89.15
2023-08-15T22:56:01.525Z,89.66
2023-08-15T22:58:30.607Z,89.24
2023-08-15T23:00:59.430Z,88.68
2023-08-15T23:03:28.616Z,88.97
2023-08-15T23:06:03.327Z,88.58
2023-08-15T23:08:33.438Z,88.91
2023-08-15T23:11:02.190Z,88.86
2023-08-15T23:13:31.030Z,88.53
2023-08-15T23:15:59.894Z,88.92
2023-08-15T23:18:28.658Z,88.75
2023-08-15T23:20:57.502Z,88.71
2023-08-15T23:23:26.208Z,88.92
2023-08-15T23:25:56.263Z,89.16
2023-08-15T23:28:24.960Z,89.17
2023-08-15T23:30:53.880Z,89.25
2023-08-15T23:33:22.621Z,88.91
2023-08-15T23:35:51.491Z,89.35
2023-08-15T23:38:21.260Z,89.20
2023-08-15T23:40:49.959Z,89.20
2023-08-15T23:43:20.001Z,89.78
2023-08-15T23:45:49.130Z,89.15
2023-08-15T23:48:18.437Z,89.14
2023-08-15T23:50:48.213Z,89.08
2023-08-15T23:53:16.938Z,89.45
2023-08-15T23:55:45.652Z,89.53
2023-08-15T23:58:14.332Z,89.41
